sensor_id;sensor_type;location;lat;lon;timestamp;pressure;altitude;pressure_sealevel;temperature;humidity
7480;BME280;3781;42.272;22.658;2023-04-01T00:00:24;93793.72;;;10.51;64.02
7480;BME280;3781;42.272;22.658;2023-04-01T00:02:51;93799.97;;;10.15;66.19
7480;BME280;3781;42.272;22.658;2023-04-01T00:05:18;93791.31;;;9.89;67.16
7480;BME280;3781;42.272;22.658;2023-04-01T00:07:44;93777.81;;;9.68;68.38
7480;BME280;3781;42.272;22.658;2023-04-01T00:10:13;93758.88;;;9.67;68.17
7480;BME280;3781;42.272;22.658;2023-04-01T00:12:40;93803.72;;;10.03;67.58
7480;BME280;3781;42.272;22.658;2023-04-01T00:15:08;93806.63;;;10.00;67.63
7480;BME280;3781;42.272;22.658;2023-04-01T00:17:35;93796.75;;;10.04;67.26
7480;BME280;3781;42.272;22.658;2023-04-01T00:20:03;93793.56;;;10.27;64.27
7480;BME280;3781;42.272;22.658;2023-04-01T00:22:30;93788.63;;;10.16;64.34
7480;BME280;3781;42.272;22.658;2023-04-01T00:24:56;93784.00;;;10.10;64.03
7480;BME280;3781;42.272;22.658;2023-04-01T00:27:25;93777.91;;;10.11;64.22
7480;BME280;3781;42.272;22.658;2023-04-01T00:29:51;93784.69;;;10.12;63.32
7480;BME280;3781;42.272;22.658;2023-04-01T00:32:18;93783.34;;;10.08;63.25
7480;BME280;3781;42.272;22.658;2023-04-01T00:34:45;93783.09;;;10.11;62.51
7480;BME280;3781;42.272;22.658;2023-04-01T00:37:12;93772.94;;;9.82;65.24
7480;BME280;3781;42.272;22.658;2023-04-01T00:39:38;93778.72;;;9.59;67.25
7480;BME280;3781;42.272;22.658;2023-04-01T00:42:05;93747.47;;;9.43;69.61
7480;BME280;3781;42.272;22.658;2023-04-01T00:44:34;93758.22;;;9.48;68.13
7480;BME280;3781;42.272;22.658;2023-04-01T00:47:01;93767.69;;;9.57;68.13
7480;BME280;3781;42.272;22.658;2023-04-01T00:49:30;93753.69;;;9.67;67.71
7480;BME280;3781;42.272;22.658;2023-04-01T00:52:00;93750.72;;;9.80;66.97
7480;BME280;3781;42.272;22.658;2023-04-01T00:54:30;93754.34;;;9.87;65.81
7480;BME280;3781;42.272;22.658;2023-04-01T00:57:00;93721.53;;;9.78;65.80
7480;BME280;3781;42.272;22.658;2023-04-01T00:59:31;93744.44;;;9.65;66.25
7480;BME280;3781;42.272;22.658;2023-04-01T01:02:01;93743.44;;;9.83;64.84
7480;BME280;3781;42.272;22.658;2023-04-01T01:04:30;93745.91;;;9.85;64.48
7480;BME280;3781;42.272;22.658;2023-04-01T01:07:06;93733.59;;;9.87;65.15
7480;BME280;3781;42.272;22.658;2023-04-01T01:09:42;93726.94;;;9.67;67.13
7480;BME280;3781;42.272;22.658;2023-04-01T01:12:15;93733.03;;;9.58;67.18
7480;BME280;3781;42.272;22.658;2023-04-01T01:15:06;93743.91;;;9.61;65.61
7480;BME280;3781;42.272;22.658;2023-04-01T01:17:44;93735.84;;;9.64;64.98
7480;BME280;3781;42.272;22.658;2023-04-01T01:23:44;93734.50;;;9.78;65.52
7480;BME280;3781;42.272;22.658;2023-04-01T01:26:37;93706.00;;;9.43;67.92
7480;BME280;3781;42.272;22.658;2023-04-01T01:29:30;93737.84;;;9.35;69.33
7480;BME280;3781;42.272;22.658;2023-04-01T01:32:07;93716.75;;;9.48;66.67
7480;BME280;3781;42.272;22.658;2023-04-01T01:34:46;93716.56;;;9.67;64.82
7480;BME280;3781;42.272;22.658;2023-04-01T01:37:23;93747.44;;;9.96;64.33
7480;BME280;3781;42.272;22.658;2023-04-01T01:39:54;93738.34;;;9.74;65.79
7480;BME280;3781;42.272;22.658;2023-04-01T01:42:25;93743.22;;;9.59;67.41
7480;BME280;3781;42.272;22.658;2023-04-01T01:44:54;93721.19;;;9.38;68.94
7480;BME280;3781;42.272;22.658;2023-04-01T01:47:23;93722.50;;;9.42;69.03
7480;BME280;3781;42.272;22.658;2023-04-01T01:49:53;93686.41;;;9.23;69.62
7480;BME280;3781;42.272;22.658;2023-04-01T01:52:23;93716.44;;;9.51;68.55
7480;BME280;3781;42.272;22.658;2023-04-01T01:54:51;93714.22;;;9.56;68.00
7480;BME280;3781;42.272;22.658;2023-04-01T01:57:21;93703.47;;;9.51;69.50
7480;BME280;3781;42.272;22.658;2023-04-01T01:59:51;93698.06;;;9.44;70.20
7480;BME280;3781;42.272;22.658;2023-04-01T02:02:19;93708.09;;;9.22;72.92
7480;BME280;3781;42.272;22.658;2023-04-01T02:04:47;93702.75;;;9.05;73.44
7480;BME280;3781;42.272;22.658;2023-04-01T02:07:19;93684.41;;;8.99;74.37
7480;BME280;3781;42.272;22.658;2023-04-01T02:09:49;93695.75;;;9.16;72.36
7480;BME280;3781;42.272;22.658;2023-04-01T02:12:18;93697.78;;;9.30;70.82
7480;BME280;3781;42.272;22.658;2023-04-01T02:14:50;93666.88;;;9.28;70.58
7480;BME280;3781;42.272;22.658;2023-04-01T02:17:19;93697.84;;;9.55;69.05
7480;BME280;3781;42.272;22.658;2023-04-01T02:19:50;93629.63;;;9.29;68.12
7480;BME280;3781;42.272;22.658;2023-04-01T02:22:20;93702.47;;;9.87;67.10
7480;BME280;3781;42.272;22.658;2023-04-01T02:24:50;93707.03;;;9.93;66.68
7480;BME280;3781;42.272;22.658;2023-04-01T02:27:19;93654.22;;;9.51;67.75
7480;BME280;3781;42.272;22.658;2023-04-01T02:29:47;93687.06;;;9.68;67.81
7480;BME280;3781;42.272;22.658;2023-04-01T02:32:14;93668.22;;;9.58;67.63
7480;BME280;3781;42.272;22.658;2023-04-01T02:34:43;93691.38;;;9.77;68.86
7480;BME280;3781;42.272;22.658;2023-04-01T02:37:10;93698.53;;;9.83;70.09
7480;BME280;3781;42.272;22.658;2023-04-01T02:39:38;93661.28;;;9.41;71.48
7480;BME280;3781;42.272;22.658;2023-04-01T02:42:06;93663.50;;;9.36;73.42
7480;BME280;3781;42.272;22.658;2023-04-01T02:44:33;93674.47;;;9.30;75.43
7480;BME280;3781;42.272;22.658;2023-04-01T02:46:59;93672.84;;;9.29;76.10
7480;BME280;3781;42.272;22.658;2023-04-01T02:49:26;93678.28;;;9.18;76.36
7480;BME280;3781;42.272;22.658;2023-04-01T02:51:53;93640.38;;;8.81;79.57
7480;BME280;3781;42.272;22.658;2023-04-01T02:54:20;93671.88;;;8.94;80.99
7480;BME280;3781;42.272;22.658;2023-04-01T02:56:46;93649.19;;;8.88;79.88
7480;BME280;3781;42.272;22.658;2023-04-01T02:59:15;93680.03;;;8.99;80.64
7480;BME280;3781;42.272;22.658;2023-04-01T03:01:41;93678.50;;;9.24;77.30
7480;BME280;3781;42.272;22.658;2023-04-01T03:04:08;93665.75;;;9.31;75.04
7480;BME280;3781;42.272;22.658;2023-04-01T03:06:35;93679.16;;;9.26;76.27
7480;BME280;3781;42.272;22.658;2023-04-01T03:09:02;93668.91;;;9.25;75.83
7480;BME280;3781;42.272;22.658;2023-04-01T03:11:29;93645.09;;;9.03;75.34
7480;BME280;3781;42.272;22.658;2023-04-01T03:13:56;93647.19;;;9.00;74.21
7480;BME280;3781;42.272;22.658;2023-04-01T03:16:24;93645.94;;;9.04;73.61
7480;BME280;3781;42.272;22.658;2023-04-01T03:18:51;93639.19;;;9.11;73.13
7480;BME280;3781;42.272;22.658;2023-04-01T03:21:20;93625.59;;;9.09;73.05
7480;BME280;3781;42.272;22.658;2023-04-01T03:23:48;93647.53;;;9.05;73.12
7480;BME280;3781;42.272;22.658;2023-04-01T03:26:15;93595.63;;;8.89;72.88
7480;BME280;3781;42.272;22.658;2023-04-01T03:28:42;93632.31;;;9.02;73.21
7480;BME280;3781;42.272;22.658;2023-04-01T03:31:09;93619.75;;;8.89;77.86
7480;BME280;3781;42.272;22.658;2023-04-01T03:33:38;93640.69;;;8.78;79.40
7480;BME280;3781;42.272;22.658;2023-04-01T03:36:05;93624.97;;;8.62;78.37
7480;BME280;3781;42.272;22.658;2023-04-01T03:38:32;93609.16;;;8.65;77.60
7480;BME280;3781;42.272;22.658;2023-04-01T03:40:59;93617.94;;;8.90;75.34
7480;BME280;3781;42.272;22.658;2023-04-01T03:43:26;93638.09;;;8.96;74.19
7480;BME280;3781;42.272;22.658;2023-04-01T03:45:54;93606.81;;;8.89;72.95
7480;BME280;3781;42.272;22.658;2023-04-01T03:48:22;93634.75;;;9.03;73.83
7480;BME280;3781;42.272;22.658;2023-04-01T03:50:51;93623.00;;;9.09;72.03
7480;BME280;3781;42.272;22.658;2023-04-01T03:53:18;93616.41;;;8.97;74.71
7480;BME280;3781;42.272;22.658;2023-04-01T03:55:45;93580.75;;;8.73;74.50
7480;BME280;3781;42.272;22.658;2023-04-01T03:58:12;93603.53;;;8.87;74.54
7480;BME280;3781;42.272;22.658;2023-04-01T04:00:39;93593.47;;;8.84;73.02
7480;BME280;3781;42.272;22.658;2023-04-01T04:03:06;93595.69;;;8.79;76.97
7480;BME280;3781;42.272;22.658;2023-04-01T04:05:33;93599.47;;;8.50;79.58
7480;BME280;3781;42.272;22.658;2023-04-01T04:08:01;93594.63;;;8.37;81.48
7480;BME280;3781;42.272;22.658;2023-04-01T04:10:28;93585.41;;;8.52;81.43
7480;BME280;3781;42.272;22.658;2023-04-01T04:12:56;93574.47;;;8.41;82.67
7480;BME280;3781;42.272;22.658;2023-04-01T04:15:23;93548.06;;;8.10;82.11
7480;BME280;3781;42.272;22.658;2023-04-01T04:17:50;93559.00;;;8.31;78.76
7480;BME280;3781;42.272;22.658;2023-04-01T04:20:17;93576.88;;;8.42;81.69
7480;BME280;3781;42.272;22.658;2023-04-01T04:22:44;93572.47;;;8.52;79.24
7480;BME280;3781;42.272;22.658;2023-04-01T04:25:12;93546.66;;;8.60;75.92
7480;BME280;3781;42.272;22.658;2023-04-01T04:27:39;93550.13;;;8.86;74.18
7480;BME280;3781;42.272;22.658;2023-04-01T04:30:07;93532.06;;;8.94;71.38
7480;BME280;3781;42.272;22.658;2023-04-01T04:32:35;93547.53;;;9.04;70.50
7480;BME280;3781;42.272;22.658;2023-04-01T04:35:01;93546.09;;;9.09;69.98
7480;BME280;3781;42.272;22.658;2023-04-01T04:37:28;93526.66;;;9.05;69.64
7480;BME280;3781;42.272;22.658;2023-04-01T04:39:55;93527.00;;;8.85;72.48
7480;BME280;3781;42.272;22.658;2023-04-01T04:42:23;93527.84;;;8.50;78.46
7480;BME280;3781;42.272;22.658;2023-04-01T04:44:50;93518.59;;;8.48;78.69
7480;BME280;3781;42.272;22.658;2023-04-01T04:47:17;93519.84;;;8.26;78.53
7480;BME280;3781;42.272;22.658;2023-04-01T04:49:43;93529.69;;;8.13;78.00
7480;BME280;3781;42.272;22.658;2023-04-01T04:52:10;93534.63;;;8.51;75.36
7480;BME280;3781;42.272;22.658;2023-04-01T04:54:37;93523.16;;;8.71;73.46
7480;BME280;3781;42.272;22.658;2023-04-01T04:57:04;93493.03;;;8.70;70.20
7480;BME280;3781;42.272;22.658;2023-04-01T04:59:32;93523.53;;;9.20;68.22
7480;BME280;3781;42.272;22.658;2023-04-01T05:01:59;93499.78;;;9.32;67.14
7480;BME280;3781;42.272;22.658;2023-04-01T05:04:25;93516.03;;;9.17;69.36
7480;BME280;3781;42.272;22.658;2023-04-01T05:06:52;93511.56;;;9.01;70.65
7480;BME280;3781;42.272;22.658;2023-04-01T05:09:19;93522.47;;;8.87;71.76
7480;BME280;3781;42.272;22.658;2023-04-01T05:11:46;93524.47;;;8.58;76.29
7480;BME280;3781;42.272;22.658;2023-04-01T05:14:13;93513.88;;;8.86;74.00
7480;BME280;3781;42.272;22.658;2023-04-01T05:16:42;93519.53;;;9.07;73.52
7480;BME280;3781;42.272;22.658;2023-04-01T05:19:09;93508.97;;;9.27;72.36
7480;BME280;3781;42.272;22.658;2023-04-01T05:21:35;93525.00;;;9.56;69.08
7480;BME280;3781;42.272;22.658;2023-04-01T05:24:02;93494.03;;;9.80;67.14
7480;BME280;3781;42.272;22.658;2023-04-01T05:26:29;93495.84;;;10.45;65.39
7480;BME280;3781;42.272;22.658;2023-04-01T05:28:57;93489.34;;;10.90;66.98
7480;BME280;3781;42.272;22.658;2023-04-01T05:31:24;93455.53;;;11.14;64.02
7480;BME280;3781;42.272;22.658;2023-04-01T05:33:52;93488.06;;;12.11;62.72
7480;BME280;3781;42.272;22.658;2023-04-01T05:36:19;93486.34;;;13.54;58.16
7480;BME280;3781;42.272;22.658;2023-04-01T05:38:46;93490.03;;;14.96;54.82
7480;BME280;3781;42.272;22.658;2023-04-01T05:41:13;93452.19;;;15.14;52.62
7480;BME280;3781;42.272;22.658;2023-04-01T05:43:41;93476.22;;;15.02;52.38
7480;BME280;3781;42.272;22.658;2023-04-01T05:46:08;93492.75;;;15.09;52.03
7480;BME280;3781;42.272;22.658;2023-04-01T05:48:34;93473.72;;;14.94;51.73
7480;BME280;3781;42.272;22.658;2023-04-01T05:51:03;93487.28;;;14.83;51.56
7480;BME280;3781;42.272;22.658;2023-04-01T05:53:30;93437.38;;;14.36;52.54
7480;BME280;3781;42.272;22.658;2023-04-01T05:56:04;93475.25;;;14.61;51.98
7480;BME280;3781;42.272;22.658;2023-04-01T05:58:32;93467.66;;;14.16;52.52
7480;BME280;3781;42.272;22.658;2023-04-01T06:01:03;93481.47;;;13.95;53.41
7480;BME280;3781;42.272;22.658;2023-04-01T06:03:30;93468.25;;;13.38;54.96
7480;BME280;3781;42.272;22.658;2023-04-01T06:05:57;93418.41;;;13.19;55.19
7480;BME280;3781;42.272;22.658;2023-04-01T06:08:25;93462.63;;;13.12;58.28
7480;BME280;3781;42.272;22.658;2023-04-01T06:11:01;93465.56;;;12.72;61.80
7480;BME280;3781;42.272;22.658;2023-04-01T06:13:40;93423.78;;;12.43;60.84
7480;BME280;3781;42.272;22.658;2023-04-01T06:16:21;93405.84;;;12.48;60.00
7480;BME280;3781;42.272;22.658;2023-04-01T06:19:04;93437.88;;;12.71;60.21
7480;BME280;3781;42.272;22.658;2023-04-01T06:21:54;93443.13;;;13.23;58.78
7480;BME280;3781;42.272;22.658;2023-04-01T06:24:41;93446.47;;;13.31;58.46
7480;BME280;3781;42.272;22.658;2023-04-01T06:27:21;93421.84;;;13.19;58.05
7480;BME280;3781;42.272;22.658;2023-04-01T06:29:59;93461.06;;;13.40;56.34
7480;BME280;3781;42.272;22.658;2023-04-01T06:32:52;93462.25;;;13.52;56.33
7480;BME280;3781;42.272;22.658;2023-04-01T06:35:35;93425.28;;;13.34;55.35
7480;BME280;3781;42.272;22.658;2023-04-01T06:38:20;93461.94;;;13.77;52.34
7480;BME280;3781;42.272;22.658;2023-04-01T06:43:55;93458.59;;;12.87;54.38
7480;BME280;3781;42.272;22.658;2023-04-01T06:46:30;93440.31;;;12.72;55.27
7480;BME280;3781;42.272;22.658;2023-04-01T06:49:12;93443.44;;;12.68;56.18
7480;BME280;3781;42.272;22.658;2023-04-01T06:51:49;93437.19;;;12.77;56.55
7480;BME280;3781;42.272;22.658;2023-04-01T06:54:21;93429.28;;;13.08;55.89
7480;BME280;3781;42.272;22.658;2023-04-01T06:56:56;93411.13;;;13.29;55.28
7480;BME280;3781;42.272;22.658;2023-04-01T06:59:26;93455.28;;;13.59;53.75
7480;BME280;3781;42.272;22.658;2023-04-01T07:01:56;93447.03;;;13.41;53.04
7480;BME280;3781;42.272;22.658;2023-04-01T07:04:28;93443.44;;;13.42;55.11
7480;BME280;3781;42.272;22.658;2023-04-01T07:06:58;93427.72;;;13.50;54.17
7480;BME280;3781;42.272;22.658;2023-04-01T07:09:32;93432.81;;;13.29;55.79
7480;BME280;3781;42.272;22.658;2023-04-01T07:12:10;93409.97;;;13.31;54.94
7480;BME280;3781;42.272;22.658;2023-04-01T07:14:41;93421.22;;;13.46;54.25
7480;BME280;3781;42.272;22.658;2023-04-01T07:17:12;93396.16;;;13.31;54.01
7480;BME280;3781;42.272;22.658;2023-04-01T07:19:45;93431.69;;;13.97;53.20
7480;BME280;3781;42.272;22.658;2023-04-01T07:22:27;93424.41;;;14.43;52.75
7480;BME280;3781;42.272;22.658;2023-04-01T07:24:57;93406.50;;;14.40;51.71
7480;BME280;3781;42.272;22.658;2023-04-01T07:27:29;93406.28;;;14.62;51.19
7480;BME280;3781;42.272;22.658;2023-04-01T07:29:56;93392.63;;;14.60;51.21
7480;BME280;3781;42.272;22.658;2023-04-01T07:32:38;93373.97;;;14.91;51.53
7480;BME280;3781;42.272;22.658;2023-04-01T07:35:19;93395.69;;;15.47;49.95
7480;BME280;3781;42.272;22.658;2023-04-01T07:38:03;93397.91;;;15.91;47.85
7480;BME280;3781;42.272;22.658;2023-04-01T07:40:56;93394.78;;;16.21;46.98
7480;BME280;3781;42.272;22.658;2023-04-01T07:43:43;93397.53;;;16.61;45.54
7480;BME280;3781;42.272;22.658;2023-04-01T07:46:26;93381.63;;;16.82;45.27
7480;BME280;3781;42.272;22.658;2023-04-01T07:49:00;93382.03;;;16.92;44.82
7480;BME280;3781;42.272;22.658;2023-04-01T07:51:34;93353.56;;;17.15;45.12
7480;BME280;3781;42.272;22.658;2023-04-01T07:54:15;93347.34;;;17.03;43.74
7480;BME280;3781;42.272;22.658;2023-04-01T07:56:55;93283.19;;;16.59;42.75
7480;BME280;3781;42.272;22.658;2023-04-01T07:59:38;93323.38;;;17.70;42.59
7480;BME280;3781;42.272;22.658;2023-04-01T08:02:24;93327.81;;;17.69;42.37
7480;BME280;3781;42.272;22.658;2023-04-01T08:05:04;93312.19;;;17.17;43.42
7480;BME280;3781;42.272;22.658;2023-04-01T08:07:40;93300.34;;;18.41;43.52
7480;BME280;3781;42.272;22.658;2023-04-01T08:10:16;93279.44;;;19.92;40.50
7480;BME280;3781;42.272;22.658;2023-04-01T08:12:55;93247.81;;;19.92;40.38
7480;BME280;3781;42.272;22.658;2023-04-01T08:15:31;93273.63;;;21.42;39.08
7480;BME280;3781;42.272;22.658;2023-04-01T08:18:12;93289.91;;;22.87;37.28
7480;BME280;3781;42.272;22.658;2023-04-01T08:20:45;93276.44;;;24.03;34.82
7480;BME280;3781;42.272;22.658;2023-04-01T08:23:14;93276.34;;;24.68;32.79
7480;BME280;3781;42.272;22.658;2023-04-01T08:25:48;93278.75;;;24.43;32.50
7480;BME280;3781;42.272;22.658;2023-04-01T08:28:24;93267.13;;;23.02;34.31
7480;BME280;3781;42.272;22.658;2023-04-01T08:30:58;93260.28;;;23.61;33.87
7480;BME280;3781;42.272;22.658;2023-04-01T08:33:31;93265.81;;;20.66;37.24
7480;BME280;3781;42.272;22.658;2023-04-01T08:36:10;93249.50;;;20.16;40.25
7480;BME280;3781;42.272;22.658;2023-04-01T08:38:39;93248.13;;;21.48;39.27
7480;BME280;3781;42.272;22.658;2023-04-01T08:41:21;93245.47;;;20.44;39.31
7480;BME280;3781;42.272;22.658;2023-04-01T08:47:20;93229.59;;;19.07;42.02
7480;BME280;3781;42.272;22.658;2023-04-01T08:50:06;93228.63;;;18.83;42.84
7480;BME280;3781;42.272;22.658;2023-04-01T08:52:52;93207.56;;;19.01;41.76
7480;BME280;3781;42.272;22.658;2023-04-01T08:55:30;93216.19;;;18.72;43.24
7480;BME280;3781;42.272;22.658;2023-04-01T09:00:43;93223.13;;;20.46;40.16
7480;BME280;3781;42.272;22.658;2023-04-01T09:08:58;93202.38;;;18.95;42.27
7480;BME280;3781;42.272;22.658;2023-04-01T09:11:39;93190.78;;;19.20;41.47
7480;BME280;3781;42.272;22.658;2023-04-01T09:14:40;93221.69;;;19.43;40.70
7480;BME280;3781;42.272;22.658;2023-04-01T09:20:26;93175.44;;;18.32;42.52
7480;BME280;3781;42.272;22.658;2023-04-01T09:26:11;93186.13;;;18.37;43.75
7480;BME280;3781;42.272;22.658;2023-04-01T09:28:44;93189.22;;;18.76;42.22
7480;BME280;3781;42.272;22.658;2023-04-01T09:31:38;93178.19;;;18.43;42.50
7480;BME280;3781;42.272;22.658;2023-04-01T09:37:13;93171.75;;;19.18;41.65
7480;BME280;3781;42.272;22.658;2023-04-01T09:40:00;93167.50;;;19.53;41.72
7480;BME280;3781;42.272;22.658;2023-04-01T09:42:42;93165.00;;;20.00;40.16
7480;BME280;3781;42.272;22.658;2023-04-01T09:45:23;93169.69;;;20.62;38.32
7480;BME280;3781;42.272;22.658;2023-04-01T09:48:00;93163.47;;;20.68;38.23
7480;BME280;3781;42.272;22.658;2023-04-01T09:50:31;93155.94;;;19.96;39.39
7480;BME280;3781;42.272;22.658;2023-04-01T09:53:11;93148.47;;;20.69;38.42
7480;BME280;3781;42.272;22.658;2023-04-01T10:02:15;93153.41;;;20.42;37.02
7480;BME280;3781;42.272;22.658;2023-04-01T10:05:27;93140.91;;;20.61;36.92
7480;BME280;3781;42.272;22.658;2023-04-01T10:08:19;93109.84;;;20.28;37.38
7480;BME280;3781;42.272;22.658;2023-04-01T10:14:25;93122.84;;;20.00;35.42
7480;BME280;3781;42.272;22.658;2023-04-01T10:17:30;93137.84;;;19.99;35.15
7480;BME280;3781;42.272;22.658;2023-04-01T10:23:38;93111.13;;;19.43;35.27
7480;BME280;3781;42.272;22.658;2023-04-01T10:26:32;93124.66;;;19.28;36.22
7480;BME280;3781;42.272;22.658;2023-04-01T10:29:49;93098.50;;;19.15;36.75
7480;BME280;3781;42.272;22.658;2023-04-01T10:42:00;93077.53;;;22.46;33.35
7480;BME280;3781;42.272;22.658;2023-04-01T10:48:07;93090.72;;;21.80;32.47
7480;BME280;3781;42.272;22.658;2023-04-01T10:51:09;93106.50;;;20.56;34.98
7480;BME280;3781;42.272;22.658;2023-04-01T10:56:40;93172.22;;;18.79;37.40
7480;BME280;3781;42.272;22.658;2023-04-01T10:59:33;93185.53;;;18.10;39.63
7480;BME280;3781;42.272;22.658;2023-04-01T11:08:35;93260.72;;;12.27;100.00
7480;BME280;3781;42.272;22.658;2023-04-01T11:14:14;93317.13;;;10.89;100.00
7480;BME280;3781;42.272;22.658;2023-04-01T11:22:52;93295.34;;;10.35;100.00
7480;BME280;3781;42.272;22.658;2023-04-01T11:25:39;93299.69;;;10.59;100.00
7480;BME280;3781;42.272;22.658;2023-04-01T11:28:27;93271.63;;;10.54;100.00
7480;BME280;3781;42.272;22.658;2023-04-01T11:31:21;93267.19;;;10.71;100.00
7480;BME280;3781;42.272;22.658;2023-04-01T11:33:57;93282.56;;;10.89;100.00
7480;BME280;3781;42.272;22.658;2023-04-01T11:36:39;93268.69;;;11.04;100.00
7480;BME280;3781;42.272;22.658;2023-04-01T11:39:20;93297.13;;;11.67;100.00
7480;BME280;3781;42.272;22.658;2023-04-01T11:41:57;93276.09;;;11.77;100.00
7480;BME280;3781;42.272;22.658;2023-04-01T11:44:29;93251.47;;;11.87;100.00
7480;BME280;3781;42.272;22.658;2023-04-01T11:47:08;93247.88;;;12.26;100.00
7480;BME280;3781;42.272;22.658;2023-04-01T11:49:53;93255.09;;;12.82;100.00
7480;BME280;3781;42.272;22.658;2023-04-01T11:52:32;93237.81;;;13.60;100.00
7480;BME280;3781;42.272;22.658;2023-04-01T11:55:14;93255.38;;;14.37;100.00
7480;BME280;3781;42.272;22.658;2023-04-01T11:57:55;93251.00;;;15.12;100.00
7480;BME280;3781;42.272;22.658;2023-04-01T12:00:44;93261.81;;;16.36;100.00
7480;BME280;3781;42.272;22.658;2023-04-01T12:03:41;93276.22;;;17.37;92.50
7480;BME280;3781;42.272;22.658;2023-04-01T12:06:14;93275.53;;;18.86;83.75
7480;BME280;3781;42.272;22.658;2023-04-01T12:08:52;93290.34;;;19.96;76.66
7480;BME280;3781;42.272;22.658;2023-04-01T12:11:27;93304.34;;;20.67;68.00
7480;BME280;3781;42.272;22.658;2023-04-01T12:14:01;93300.63;;;21.33;60.81
7480;BME280;3781;42.272;22.658;2023-04-01T12:16:41;93308.44;;;21.51;59.58
7480;BME280;3781;42.272;22.658;2023-04-01T12:19:17;93306.50;;;21.35;56.00
7480;BME280;3781;42.272;22.658;2023-04-01T12:22:02;93299.97;;;20.50;60.03
7480;BME280;3781;42.272;22.658;2023-04-01T12:24:47;93294.16;;;18.85;59.16
7480;BME280;3781;42.272;22.658;2023-04-01T12:27:41;93276.47;;;17.16;65.56
7480;BME280;3781;42.272;22.658;2023-04-01T12:33:48;93304.25;;;15.86;79.52
7480;BME280;3781;42.272;22.658;2023-04-01T12:36:52;93295.16;;;17.46;77.72
7480;BME280;3781;42.272;22.658;2023-04-01T12:39:50;93303.25;;;19.49;67.74
7480;BME280;3781;42.272;22.658;2023-04-01T12:42:42;93319.13;;;19.18;63.27
7480;BME280;3781;42.272;22.658;2023-04-01T12:45:32;93276.97;;;19.79;62.00
7480;BME280;3781;42.272;22.658;2023-04-01T12:48:27;93303.44;;;20.02;61.41
7480;BME280;3781;42.272;22.658;2023-04-01T12:51:09;93304.09;;;19.25;60.92
7480;BME280;3781;42.272;22.658;2023-04-01T12:53:57;93279.88;;;18.18;63.72
7480;BME280;3781;42.272;22.658;2023-04-01T12:56:34;93276.56;;;17.47;67.68
7480;BME280;3781;42.272;22.658;2023-04-01T12:59:31;93303.78;;;18.72;63.98
7480;BME280;3781;42.272;22.658;2023-04-01T13:02:11;93285.00;;;20.02;60.31
7480;BME280;3781;42.272;22.658;2023-04-01T13:05:00;93273.50;;;19.97;56.70
7480;BME280;3781;42.272;22.658;2023-04-01T13:07:52;93259.44;;;18.76;59.20
7480;BME280;3781;42.272;22.658;2023-04-01T13:10:32;93262.88;;;18.76;59.75
7480;BME280;3781;42.272;22.658;2023-04-01T13:13:16;93250.00;;;19.47;57.62
7480;BME280;3781;42.272;22.658;2023-04-01T13:15:51;93254.06;;;19.80;57.03
7480;BME280;3781;42.272;22.658;2023-04-01T13:18:28;93262.00;;;20.51;55.66
7480;BME280;3781;42.272;22.658;2023-04-01T13:21:05;93262.50;;;20.00;57.00
7480;BME280;3781;42.272;22.658;2023-04-01T13:23:41;93270.38;;;19.34;57.23
7480;BME280;3781;42.272;22.658;2023-04-01T13:26:18;93276.16;;;17.94;63.12
7480;BME280;3781;42.272;22.658;2023-04-01T13:28:55;93261.00;;;16.29;68.05
7480;BME280;3781;42.272;22.658;2023-04-01T13:31:38;93288.75;;;15.91;75.42
7480;BME280;3781;42.272;22.658;2023-04-01T13:34:23;93302.78;;;15.70;79.51
7480;BME280;3781;42.272;22.658;2023-04-01T13:37:02;93292.69;;;15.14;77.32
7480;BME280;3781;42.272;22.658;2023-04-01T13:39:54;93285.56;;;14.73;91.07
7480;BME280;3781;42.272;22.658;2023-04-01T13:42:26;93290.25;;;13.87;91.83
7480;BME280;3781;42.272;22.658;2023-04-01T13:45:00;93282.84;;;13.04;96.54
7480;BME280;3781;42.272;22.658;2023-04-01T13:50:36;93270.81;;;12.07;79.85
7480;BME280;3781;42.272;22.658;2023-04-01T13:53:11;93277.38;;;11.81;84.61
7480;BME280;3781;42.272;22.658;2023-04-01T13:55:56;93287.03;;;11.64;85.58
7480;BME280;3781;42.272;22.658;2023-04-01T13:58:50;93258.06;;;11.14;99.66
7480;BME280;3781;42.272;22.658;2023-04-01T14:01:28;93267.56;;;10.99;100.00
7480;BME280;3781;42.272;22.658;2023-04-01T14:07:41;93231.06;;;12.13;100.00
7480;BME280;3781;42.272;22.658;2023-04-01T14:10:19;93190.34;;;13.72;94.47
7480;BME280;3781;42.272;22.658;2023-04-01T14:12:56;93189.50;;;15.29;79.51
7480;BME280;3781;42.272;22.658;2023-04-01T14:15:45;93181.03;;;17.10;71.05
7480;BME280;3781;42.272;22.658;2023-04-01T14:21:20;93183.06;;;19.85;55.68
7480;BME280;3781;42.272;22.658;2023-04-01T14:24:01;93197.56;;;21.05;52.30
7480;BME280;3781;42.272;22.658;2023-04-01T14:26:40;93187.34;;;22.32;48.34
7480;BME280;3781;42.272;22.658;2023-04-01T14:29:21;93180.41;;;21.70;44.23
7480;BME280;3781;42.272;22.658;2023-04-01T14:31:59;93151.06;;;21.27;44.19
7480;BME280;3781;42.272;22.658;2023-04-01T14:34:50;93187.41;;;23.04;40.58
7480;BME280;3781;42.272;22.658;2023-04-01T14:37:37;93156.50;;;24.91;39.81
7480;BME280;3781;42.272;22.658;2023-04-01T14:40:20;93162.53;;;25.18;37.59
7480;BME280;3781;42.272;22.658;2023-04-01T14:43:01;93175.63;;;24.25;39.79
7480;BME280;3781;42.272;22.658;2023-04-01T14:45:46;93152.50;;;22.69;39.46
7480;BME280;3781;42.272;22.658;2023-04-01T14:48:25;93110.59;;;21.66;40.96
7480;BME280;3781;42.272;22.658;2023-04-01T14:50:56;93181.31;;;22.65;38.78
7480;BME280;3781;42.272;22.658;2023-04-01T14:53:30;93146.97;;;20.38;45.93
7480;BME280;3781;42.272;22.658;2023-04-01T14:56:01;93138.94;;;18.24;49.95
7480;BME280;3781;42.272;22.658;2023-04-01T14:58:41;93188.94;;;17.48;53.97
7480;BME280;3781;42.272;22.658;2023-04-01T15:01:22;93187.22;;;16.45;57.74
7480;BME280;3781;42.272;22.658;2023-04-01T15:03:59;93164.66;;;16.51;56.31
7480;BME280;3781;42.272;22.658;2023-04-01T15:06:53;93146.31;;;16.51;56.59
7480;BME280;3781;42.272;22.658;2023-04-01T15:09:30;93176.72;;;16.72;55.77
7480;BME280;3781;42.272;22.658;2023-04-01T15:12:12;93160.44;;;17.89;55.10
7480;BME280;3781;42.272;22.658;2023-04-01T15:15:14;93206.66;;;18.71;52.11
7480;BME280;3781;42.272;22.658;2023-04-01T15:18:02;93187.97;;;17.80;52.14
7480;BME280;3781;42.272;22.658;2023-04-01T15:20:44;93179.03;;;17.06;53.33
7480;BME280;3781;42.272;22.658;2023-04-01T15:23:23;93187.50;;;17.08;54.64